sensor_id;sensor_type;location;lat;lon;timestamp;P1;durP1;ratioP1;P2;durP2;ratioP2
11334;SDS011;5722;42.620;23.374;2023-03-01T00:04:43;4.80;;;4.00;;
11334;SDS011;5722;42.620;23.374;2023-03-01T00:10:12;5.03;;;4.30;;
11334;SDS011;5722;42.620;23.374;2023-03-01T00:12:45;5.43;;;4.87;;
11334;SDS011;5722;42.620;23.374;2023-03-01T00:15:24;6.53;;;5.83;;
11334;SDS011;5722;42.620;23.374;2023-03-01T00:18:02;7.07;;;6.37;;
11334;SDS011;5722;42.620;23.374;2023-03-01T00:20:34;8.70;;;7.90;;
11334;SDS011;5722;42.620;23.374;2023-03-01T00:23:13;9.20;;;8.30;;
11334;SDS011;5722;42.620;23.374;2023-03-01T00:25:48;10.83;;;8.77;;
11334;SDS011;5722;42.620;23.374;2023-03-01T00:28:27;10.73;;;9.73;;
11334;SDS011;5722;42.620;23.374;2023-03-01T00:31:04;9.77;;;8.87;;
11334;SDS011;5722;42.620;23.374;2023-03-01T00:33:35;9.57;;;8.73;;
11334;SDS011;5722;42.620;23.374;2023-03-01T00:36:05;8.90;;;8.07;;
11334;SDS011;5722;42.620;23.374;2023-03-01T00:38:41;8.43;;;7.73;;
11334;SDS011;5722;42.620;23.374;2023-03-01T00:41:28;8.43;;;7.63;;
11334;SDS011;5722;42.620;23.374;2023-03-01T00:44:00;7.50;;;6.80;;
11334;SDS011;5722;42.620;23.374;2023-03-01T00:46:32;5.80;;;5.30;;
11334;SDS011;5722;42.620;23.374;2023-03-01T00:49:13;5.20;;;4.70;;
11334;SDS011;5722;42.620;23.374;2023-03-01T00:54:20;4.77;;;4.37;;
11334;SDS011;5722;42.620;23.374;2023-03-01T00:56:47;4.43;;;4.03;;
11334;SDS011;5722;42.620;23.374;2023-03-01T00:59:15;3.30;;;3.00;;
11334;SDS011;5722;42.620;23.374;2023-03-01T01:01:49;2.30;;;2.10;;
11334;SDS011;5722;42.620;23.374;2023-03-01T01:04:18;1.80;;;1.43;;
11334;SDS011;5722;42.620;23.374;2023-03-01T01:06:47;1.30;;;1.20;;
11334;SDS011;5722;42.620;23.374;2023-03-01T01:09:39;1.30;;;1.20;;
11334;SDS011;5722;42.620;23.374;2023-03-01T01:12:19;1.40;;;1.10;;
11334;SDS011;5722;42.620;23.374;2023-03-01T01:14:52;1.00;;;1.00;;
11334;SDS011;5722;42.620;23.374;2023-03-01T01:17:35;1.03;;;1.00;;
11334;SDS011;5722;42.620;23.374;2023-03-01T01:20:15;1.83;;;1.73;;
11334;SDS011;5722;42.620;23.374;2023-03-01T01:22:46;3.40;;;3.10;;
11334;SDS011;5722;42.620;23.374;2023-03-01T01:25:39;3.60;;;3.30;;
11334;SDS011;5722;42.620;23.374;2023-03-01T01:28:08;3.50;;;3.20;;
11334;SDS011;5722;42.620;23.374;2023-03-01T01:30:45;4.13;;;3.73;;
11334;SDS011;5722;42.620;23.374;2023-03-01T01:33:18;3.60;;;3.30;;
11334;SDS011;5722;42.620;23.374;2023-03-01T01:35:46;3.53;;;3.23;;
11334;SDS011;5722;42.620;23.374;2023-03-01T01:38:19;3.40;;;3.10;;
11334;SDS011;5722;42.620;23.374;2023-03-01T01:40:56;3.23;;;3.03;;
11334;SDS011;5722;42.620;23.374;2023-03-01T01:46:00;2.87;;;2.63;;
11334;SDS011;5722;42.620;23.374;2023-03-01T01:48:38;2.67;;;2.40;;
11334;SDS011;5722;42.620;23.374;2023-03-01T01:51:11;2.67;;;2.47;;
11334;SDS011;5722;42.620;23.374;2023-03-01T01:53:41;2.57;;;2.37;;
11334;SDS011;5722;42.620;23.374;2023-03-01T01:56:12;2.57;;;2.37;;
11334;SDS011;5722;42.620;23.374;2023-03-01T01:58:46;2.33;;;2.13;;
11334;SDS011;5722;42.620;23.374;2023-03-01T02:01:21;2.30;;;2.17;;
11334;SDS011;5722;42.620;23.374;2023-03-01T02:03:58;2.20;;;2.10;;
11334;SDS011;5722;42.620;23.374;2023-03-01T02:06:33;2.37;;;2.17;;
11334;SDS011;5722;42.620;23.374;2023-03-01T02:09:04;2.50;;;2.27;;
11334;SDS011;5722;42.620;23.374;2023-03-01T02:11:35;2.40;;;2.20;;
11334;SDS011;5722;42.620;23.374;2023-03-01T02:19:56;2.50;;;2.30;;
11334;SDS011;5722;42.620;23.374;2023-03-01T02:22:28;2.30;;;2.10;;
11334;SDS011;5722;42.620;23.374;2023-03-01T02:25:03;2.60;;;2.40;;
11334;SDS011;5722;42.620;23.374;2023-03-01T02:27:44;2.17;;;2.07;;
11334;SDS011;5722;42.620;23.374;2023-03-01T02:30:17;2.33;;;2.23;;
11334;SDS011;5722;42.620;23.374;2023-03-01T02:32:53;2.60;;;2.40;;
11334;SDS011;5722;42.620;23.374;2023-03-01T02:35:35;2.60;;;2.40;;
11334;SDS011;5722;42.620;23.374;2023-03-01T02:38:06;2.70;;;2.50;;
11334;SDS011;5722;42.620;23.374;2023-03-01T02:40:41;2.37;;;2.20;;
11334;SDS011;5722;42.620;23.374;2023-03-01T02:43:14;2.87;;;2.67;;
11334;SDS011;5722;42.620;23.374;2023-03-01T02:45:51;2.73;;;2.53;;
11334;SDS011;5722;42.620;23.374;2023-03-01T02:48:22;3.00;;;2.80;;
11334;SDS011;5722;42.620;23.374;2023-03-01T02:50:56;2.90;;;2.70;;
11334;SDS011;5722;42.620;23.374;2023-03-01T02:53:41;2.70;;;2.50;;
11334;SDS011;5722;42.620;23.374;2023-03-01T02:56:16;3.20;;;3.00;;
11334;SDS011;5722;42.620;23.374;2023-03-01T02:59:00;3.23;;;3.03;;
11334;SDS011;5722;42.620;23.374;2023-03-01T03:01:38;3.47;;;3.17;;
11334;SDS011;5722;42.620;23.374;2023-03-01T03:04:13;3.63;;;3.23;;
11334;SDS011;5722;42.620;23.374;2023-03-01T03:06:45;4.10;;;3.80;;
11334;SDS011;5722;42.620;23.374;2023-03-01T03:09:15;4.00;;;3.60;;
11334;SDS011;5722;42.620;23.374;2023-03-01T03:11:45;4.57;;;4.17;;
11334;SDS011;5722;42.620;23.374;2023-03-01T03:17:08;3.80;;;3.50;;
11334;SDS011;5722;42.620;23.374;2023-03-01T03:24:48;3.67;;;3.13;;
11334;SDS011;5722;42.620;23.374;2023-03-01T03:27:19;6.50;;;3.10;;
11334;SDS011;5722;42.620;23.374;2023-03-01T03:30:09;3.47;;;3.17;;
11334;SDS011;5722;42.620;23.374;2023-03-01T03:32:45;3.50;;;3.20;;
11334;SDS011;5722;42.620;23.374;2023-03-01T03:35:27;3.27;;;3.00;;
11334;SDS011;5722;42.620;23.374;2023-03-01T03:37:55;3.30;;;3.00;;
11334;SDS011;5722;42.620;23.374;2023-03-01T03:40:41;3.70;;;3.40;;
11334;SDS011;5722;42.620;23.374;2023-03-01T03:43:14;3.80;;;3.40;;
11334;SDS011;5722;42.620;23.374;2023-03-01T03:45:54;3.70;;;3.40;;
11334;SDS011;5722;42.620;23.374;2023-03-01T03:48:28;3.83;;;3.40;;
11334;SDS011;5722;42.620;23.374;2023-03-01T03:50:59;3.40;;;3.10;;
11334;SDS011;5722;42.620;23.374;2023-03-01T03:53:31;4.00;;;3.60;;
11334;SDS011;5722;42.620;23.374;2023-03-01T03:56:00;3.40;;;3.10;;
11334;SDS011;5722;42.620;23.374;2023-03-01T03:58:30;3.20;;;2.90;;
11334;SDS011;5722;42.620;23.374;2023-03-01T04:01:05;3.37;;;3.03;;
11334;SDS011;5722;42.620;23.374;2023-03-01T04:03:44;3.30;;;3.00;;
11334;SDS011;5722;42.620;23.374;2023-03-01T04:06:19;3.30;;;3.00;;
11334;SDS011;5722;42.620;23.374;2023-03-01T04:11:26;4.57;;;3.00;;
11334;SDS011;5722;42.620;23.374;2023-03-01T04:14:03;3.67;;;2.87;;
11334;SDS011;5722;42.620;23.374;2023-03-01T04:16:31;3.57;;;3.00;;
11334;SDS011;5722;42.620;23.374;2023-03-01T04:19:04;3.23;;;2.93;;
11334;SDS011;5722;42.620;23.374;2023-03-01T04:21:31;3.40;;;3.10;;
11334;SDS011;5722;42.620;23.374;2023-03-01T04:23:59;3.33;;;3.03;;
11334;SDS011;5722;42.620;23.374;2023-03-01T04:26:32;3.77;;;2.90;;
11334;SDS011;5722;42.620;23.374;2023-03-01T04:29:06;4.10;;;3.00;;
11334;SDS011;5722;42.620;23.374;2023-03-01T04:31:38;3.30;;;3.00;;
11334;SDS011;5722;42.620;23.374;2023-03-01T04:34:19;3.50;;;3.20;;
11334;SDS011;5722;42.620;23.374;2023-03-01T04:36:50;3.83;;;3.33;;
11334;SDS011;5722;42.620;23.374;2023-03-01T04:42:33;3.37;;;3.07;;
11334;SDS011;5722;42.620;23.374;2023-03-01T04:45:04;4.00;;;3.40;;
11334;SDS011;5722;42.620;23.374;2023-03-01T04:47:39;3.80;;;3.20;;
11334;SDS011;5722;42.620;23.374;2023-03-01T04:50:08;4.33;;;3.37;;
11334;SDS011;5722;42.620;23.374;2023-03-01T04:58:21;3.43;;;3.13;;
11334;SDS011;5722;42.620;23.374;2023-03-01T05:04:15;3.90;;;3.50;;
11334;SDS011;5722;42.620;23.374;2023-03-01T07:26:54;2.10;;;1.60;;
11334;SDS011;5722;42.620;23.374;2023-03-01T07:35:18;1.60;;;1.50;;
11334;SDS011;5722;42.620;23.374;2023-03-01T07:38:04;3.13;;;1.60;;
11334;SDS011;5722;42.620;23.374;2023-03-01T07:40:48;1.70;;;1.60;;
11334;SDS011;5722;42.620;23.374;2023-03-01T09:43:31;2.37;;;2.17;;
11334;SDS011;5722;42.620;23.374;2023-03-01T09:46:13;2.77;;;2.20;;
11334;SDS011;5722;42.620;23.374;2023-03-01T09:48:45;2.77;;;2.57;;
11334;SDS011;5722;42.620;23.374;2023-03-01T09:54:18;3.30;;;2.30;;
11334;SDS011;5722;42.620;23.374;2023-03-01T09:56:52;2.43;;;2.23;;
11334;SDS011;5722;42.620;23.374;2023-03-01T10:26:35;3.10;;;2.83;;
11334;SDS011;5722;42.620;23.374;2023-03-01T10:56:31;3.93;;;2.90;;
11334;SDS011;5722;42.620;23.374;2023-03-01T13:52:05;3.13;;;2.83;;
11334;SDS011;5722;42.620;23.374;2023-03-01T14:06:52;3.43;;;2.73;;
11334;SDS011;5722;42.620;23.374;2023-03-01T14:18:52;3.33;;;2.93;;
11334;SDS011;5722;42.620;23.374;2023-03-01T14:21:27;3.10;;;2.80;;
11334;SDS011;5722;42.620;23.374;2023-03-01T14:27:11;3.13;;;2.83;;
11334;SDS011;5722;42.620;23.374;2023-03-01T14:32:56;6.00;;;3.40;;
11334;SDS011;5722;42.620;23.374;2023-03-01T14:35:36;4.23;;;3.80;;
11334;SDS011;5722;42.620;23.374;2023-03-01T14:38:19;4.63;;;3.10;;
11334;SDS011;5722;42.620;23.374;2023-03-01T14:41:00;3.67;;;3.00;;
11334;SDS011;5722;42.620;23.374;2023-03-01T14:46:32;5.47;;;4.40;;
11334;SDS011;5722;42.620;23.374;2023-03-01T21:17:40;9.33;;;7.90;;
11334;SDS011;5722;42.620;23.374;2023-03-01T21:20:10;9.90;;;7.73;;
11334;SDS011;5722;42.620;23.374;2023-03-01T21:22:48;10.50;;;8.00;;
11334;SDS011;5722;42.620;23.374;2023-03-01T21:25:41;11.00;;;8.03;;
11334;SDS011;5722;42.620;23.374;2023-03-01T21:28:24;11.07;;;8.23;;
11334;SDS011;5722;42.620;23.374;2023-03-01T21:31:03;12.27;;;8.73;;
11334;SDS011;5722;42.620;23.374;2023-03-01T22:03:03;12.70;;;8.77;;
11334;SDS011;5722;42.620;23.374;2023-03-01T22:05:33;11.67;;;8.53;;
11334;SDS011;5722;42.620;23.374;2023-03-01T22:08:15;14.83;;;9.47;;
11334;SDS011;5722;42.620;23.374;2023-03-01T22:10:54;12.10;;;8.87;;
11334;SDS011;5722;42.620;23.374;2023-03-01T22:13:22;10.90;;;8.73;;
11334;SDS011;5722;42.620;23.374;2023-03-01T22:15:59;9.60;;;7.63;;
11334;SDS011;5722;42.620;23.374;2023-03-01T22:18:32;9.63;;;7.77;;
11334;SDS011;5722;42.620;23.374;2023-03-01T22:21:02;9.27;;;7.37;;
11334;SDS011;5722;42.620;23.374;2023-03-01T22:23:54;8.93;;;7.30;;
11334;SDS011;5722;42.620;23.374;2023-03-01T22:26:25;10.33;;;7.20;;
11334;SDS011;5722;42.620;23.374;2023-03-01T22:28:55;8.43;;;7.30;;
11334;SDS011;5722;42.620;23.374;2023-03-01T22:31:26;8.57;;;7.20;;
11334;SDS011;5722;42.620;23.374;2023-03-01T22:34:09;8.17;;;7.00;;
11334;SDS011;5722;42.620;23.374;2023-03-01T22:36:37;10.60;;;6.57;;
11334;SDS011;5722;42.620;23.374;2023-03-01T22:39:05;9.43;;;7.73;;
11334;SDS011;5722;42.620;23.374;2023-03-01T22:41:40;9.20;;;7.47;;
11334;SDS011;5722;42.620;23.374;2023-03-01T22:44:16;8.43;;;7.57;;
11334;SDS011;5722;42.620;23.374;2023-03-01T22:46:52;9.80;;;7.37;;
11334;SDS011;5722;42.620;23.374;2023-03-01T22:49:26;7.83;;;6.80;;
11334;SDS011;5722;42.620;23.374;2023-03-01T22:51:54;7.90;;;7.10;;
11334;SDS011;5722;42.620;23.374;2023-03-01T22:54:27;8.40;;;7.20;;
11334;SDS011;5722;42.620;23.374;2023-03-01T22:56:54;7.97;;;6.50;;
11334;SDS011;5722;42.620;23.374;2023-03-01T22:59:22;7.80;;;6.30;;
11334;SDS011;5722;42.620;23.374;2023-03-01T23:01:54;7.33;;;6.30;;
11334;SDS011;5722;42.620;23.374;2023-03-01T23:04:22;8.37;;;6.80;;
11334;SDS011;5722;42.620;23.374;2023-03-01T23:06:55;8.53;;;6.07;;
11334;SDS011;5722;42.620;23.374;2023-03-01T23:09:32;8.17;;;5.90;;
11334;SDS011;5722;42.620;23.374;2023-03-01T23:12:11;6.87;;;5.70;;
11334;SDS011;5722;42.620;23.374;2023-03-01T23:14:43;6.17;;;5.57;;
11334;SDS011;5722;42.620;23.374;2023-03-01T23:19:55;6.30;;;5.63;;
11334;SDS011;5722;42.620;23.374;2023-03-01T23:25:26;6.17;;;5.57;;
11334;SDS011;5722;42.620;23.374;2023-03-01T23:28:00;5.73;;;5.07;;
11334;SDS011;5722;42.620;23.374;2023-03-01T23:30:36;6.63;;;5.50;;
11334;SDS011;5722;42.620;23.374;2023-03-01T23:33:15;6.13;;;5.27;;
11334;SDS011;5722;42.620;23.374;2023-03-01T23:35:52;6.10;;;5.30;;
11334;SDS011;5722;42.620;23.374;2023-03-01T23:38:27;4.87;;;3.80;;
11334;SDS011;5722;42.620;23.374;2023-03-01T23:41:01;3.87;;;3.20;;
11334;SDS011;5722;42.620;23.374;2023-03-01T23:43:30;3.73;;;3.17;;
11334;SDS011;5722;42.620;23.374;2023-03-01T23:46:12;2.67;;;2.47;;
11334;SDS011;5722;42.620;23.374;2023-03-01T23:48:45;3.10;;;2.80;;
11334;SDS011;5722;42.620;23.374;2023-03-01T23:51:19;2.67;;;2.47;;
11334;SDS011;5722;42.620;23.374;2023-03-01T23:53:59;2.53;;;2.33;;
11334;SDS011;5722;42.620;23.374;2023-03-01T23:59:40;2.80;;;2.47;;
